createdAt,value
2023-04-16T00:01:01.870Z,2.40
2023-04-16T00:03:28.337Z,2.85
2023-04-16T00:05:56.451Z,2.92
2023-04-16T00:08:24.670Z,2.63
2023-04-16T00:10:51.735Z,3.63
2023-04-16T00:13:18.198Z,2.88
2023-04-16T00:15:44.595Z,3.60
2023-04-16T00:18:10.926Z,2.88
2023-04-16T00:20:37.207Z,2.78
2023-04-16T00:23:03.473Z,2.78
2023-04-16T00:25:30.068Z,2.00
2023-04-16T00:27:56.478Z,2.88
2023-04-16T00:30:22.858Z,2.65
2023-04-16T00:32:49.195Z,2.80
2023-04-16T00:35:15.710Z,3.05
2023-04-16T00:37:42.059Z,3.03
2023-04-16T00:40:08.501Z,2.78
2023-04-16T00:42:37.013Z,2.72
2023-04-16T00:45:03.855Z,2.80
2023-04-16T00:47:31.107Z,3.80
2023-04-16T00:49:57.408Z,3.70
2023-04-16T00:52:23.852Z,3.30
2023-04-16T00:54:50.272Z,3.45
2023-04-16T00:57:17.177Z,3.10
2023-04-16T00:59:43.545Z,3.65
2023-04-16T01:02:09.932Z,3.67
2023-04-16T01:04:36.646Z,3.58
2023-04-16T01:07:03.079Z,3.95
2023-04-16T01:09:29.419Z,4.22
2023-04-16T01:11:55.707Z,3.90
2023-04-16T01:14:22.043Z,3.25
2023-04-16T01:16:48.376Z,3.30
2023-04-16T01:19:14.613Z,2.90
2023-04-16T01:21:40.900Z,3.95
2023-04-16T01:24:07.317Z,3.63
2023-04-16T01:26:33.637Z,3.60
2023-04-16T01:29:00.647Z,3.70
2023-04-16T01:31:27.034Z,3.95
2023-04-16T01:33:53.434Z,3.13
2023-04-16T01:36:19.780Z,3.75
2023-04-16T01:38:46.444Z,3.83
2023-04-16T01:41:12.733Z,3.90
2023-04-16T01:43:40.333Z,4.22
2023-04-16T01:46:20.372Z,4.45
2023-04-16T01:48:47.118Z,4.47
2023-04-16T01:51:13.409Z,4.05
2023-04-16T01:53:39.679Z,5.57
2023-04-16T01:56:06.171Z,5.18
2023-04-16T01:58:32.918Z,5.97
2023-04-16T02:00:59.588Z,5.38
2023-04-16T02:03:26.182Z,6.00
2023-04-16T02:05:52.621Z,5.63
2023-04-16T02:08:19.003Z,6.20
2023-04-16T02:10:49.177Z,6.55
2023-04-16T02:13:16.297Z,6.80
2023-04-16T02:15:49.057Z,7.97
2023-04-16T02:18:15.464Z,6.82
2023-04-16T02:20:45.814Z,7.80
2023-04-16T02:23:12.607Z,7.03
2023-04-16T02:25:42.494Z,6.93
2023-04-16T02:28:09.180Z,7.60
2023-04-16T02:30:39.020Z,6.93
2023-04-16T02:33:07.272Z,6.53
2023-04-16T02:35:34.419Z,6.63
2023-04-16T02:38:01.452Z,6.68
2023-04-16T02:40:28.605Z,7.15
2023-04-16T02:42:54.879Z,6.90
2023-04-16T02:45:21.357Z,7.00
2023-04-16T02:47:48.071Z,7.55
2023-04-16T02:50:14.474Z,7.35
2023-04-16T02:52:40.770Z,8.18
2023-04-16T02:55:07.350Z,7.25
2023-04-16T02:57:34.871Z,7.60
2023-04-16T03:00:01.187Z,7.65
2023-04-16T03:02:27.640Z,7.75
2023-04-16T03:04:54.259Z,7.78
2023-04-16T03:07:20.585Z,8.95
2023-04-16T03:09:46.908Z,9.63
2023-04-16T03:12:13.128Z,9.82
2023-04-16T03:14:39.479Z,9.07
2023-04-16T03:17:05.795Z,8.98
2023-04-16T03:19:32.125Z,7.93
2023-04-16T03:21:58.803Z,8.13
2023-04-16T03:24:26.015Z,7.22
2023-04-16T03:26:52.455Z,7.47
2023-04-16T03:29:18.780Z,8.20
2023-04-16T03:31:45.114Z,7.93
2023-04-16T03:34:11.448Z,8.50
2023-04-16T03:36:37.828Z,7.05
2023-04-16T03:39:04.245Z,7.32
2023-04-16T03:41:30.634Z,7.85
2023-04-16T03:43:56.952Z,8.23
2023-04-16T03:46:23.307Z,8.27
2023-04-16T03:48:49.586Z,8.25
2023-04-16T03:51:15.990Z,7.72
2023-04-16T03:53:42.325Z,8.15
2023-04-16T03:56:08.583Z,8.00
2023-04-16T03:58:34.859Z,9.13
2023-04-16T04:01:01.179Z,9.18
2023-04-16T04:03:27.871Z,8.73
2023-04-16T04:05:54.419Z,9.40
2023-04-16T04:08:20.853Z,10.30
2023-04-16T04:10:47.118Z,9.35
2023-04-16T04:13:13.402Z,8.88
2023-04-16T04:15:39.697Z,9.23
2023-04-16T04:18:06.117Z,9.68
2023-04-16T04:20:32.446Z,8.15
2023-04-16T04:22:58.952Z,9.85
2023-04-16T04:25:25.379Z,8.90
2023-04-16T04:27:51.720Z,8.82
2023-04-16T04:30:18.037Z,9.45
2023-04-16T04:32:44.448Z,9.32
2023-04-16T04:35:10.971Z,8.23
2023-04-16T04:37:37.281Z,8.20
2023-04-16T04:40:03.659Z,8.57
2023-04-16T04:42:29.970Z,9.85
2023-04-16T04:44:56.480Z,7.80
2023-04-16T04:47:22.802Z,8.40
2023-04-16T04:49:49.138Z,9.68
2023-04-16T04:52:15.423Z,9.00
2023-04-16T04:54:41.856Z,8.90
2023-04-16T04:57:08.393Z,9.30
2023-04-16T04:59:34.655Z,9.68
2023-04-16T05:02:02.412Z,8.70
2023-04-16T05:04:29.786Z,9.18
2023-04-16T05:06:56.037Z,8.82
2023-04-16T05:09:22.328Z,9.13
2023-04-16T05:11:48.937Z,9.32
2023-04-16T05:14:15.172Z,10.15
2023-04-16T05:16:41.506Z,10.30
2023-04-16T05:19:08.198Z,9.45
2023-04-16T05:21:34.708Z,9.18
2023-04-16T05:24:01.129Z,9.63
2023-04-16T05:26:27.502Z,10.82
2023-04-16T05:28:53.832Z,10.30
2023-04-16T05:31:20.587Z,10.25
2023-04-16T05:33:47.002Z,10.40
2023-04-16T05:36:13.268Z,10.18
2023-04-16T05:38:39.516Z,8.82
2023-04-16T05:41:05.801Z,10.93
2023-04-16T05:43:32.229Z,9.95
2023-04-16T05:45:58.771Z,9.80
2023-04-16T05:48:25.087Z,9.40
2023-04-16T05:50:51.379Z,9.25
2023-04-16T05:53:18.988Z,10.88
2023-04-16T05:55:45.394Z,9.68
2023-04-16T05:58:11.649Z,10.57
2023-04-16T06:00:38.002Z,9.32
2023-04-16T06:03:04.449Z,9.73
2023-04-16T06:05:30.982Z,11.02
2023-04-16T06:07:57.304Z,9.48
2023-04-16T06:10:23.660Z,9.15
2023-04-16T06:12:49.928Z,11.52
2023-04-16T06:15:16.217Z,11.32
2023-04-16T06:17:42.573Z,10.45
2023-04-16T06:20:09.239Z,11.43
2023-04-16T06:22:35.588Z,10.40
2023-04-16T06:25:01.871Z,11.18
2023-04-16T06:27:28.464Z,10.90
2023-04-16T06:29:55.048Z,11.48
2023-04-16T06:32:21.636Z,11.70
2023-04-16T06:34:47.998Z,11.20
2023-04-16T06:37:14.355Z,12.10
2023-04-16T06:39:40.703Z,12.32
2023-04-16T06:42:06.998Z,11.88
2023-04-16T06:44:33.393Z,10.73
2023-04-16T06:46:59.905Z,11.15
2023-04-16T06:49:26.334Z,11.35
2023-04-16T06:51:52.749Z,11.25
2023-04-16T06:54:19.763Z,11.07
2023-04-16T06:56:46.028Z,11.95
2023-04-16T06:59:12.327Z,12.40
2023-04-16T07:01:38.654Z,13.60
2023-04-16T07:04:05.361Z,14.55
2023-04-16T07:06:32.046Z,13.95
2023-04-16T07:08:58.515Z,15.02
2023-04-16T07:11:25.958Z,13.27
2023-04-16T07:13:53.831Z,12.63
2023-04-16T07:16:20.248Z,12.10
2023-04-16T07:18:46.971Z,11.75
2023-04-16T07:21:13.278Z,11.75
2023-04-16T07:23:39.604Z,11.60
2023-04-16T07:26:05.986Z,11.27
2023-04-16T07:28:32.293Z,10.85
2023-04-16T07:30:58.761Z,11.18
2023-04-16T07:33:25.076Z,10.65
2023-04-16T07:35:51.573Z,11.45
2023-04-16T07:38:17.918Z,10.93
2023-04-16T07:40:44.317Z,11.02
2023-04-16T07:43:11.007Z,10.20
2023-04-16T07:45:37.442Z,10.80
2023-04-16T07:48:03.863Z,10.55
2023-04-16T07:50:30.288Z,8.95
2023-04-16T07:52:56.626Z,9.40
2023-04-16T07:55:22.921Z,10.10
2023-04-16T07:57:49.323Z,9.50
2023-04-16T08:00:15.695Z,8.95
2023-04-16T08:02:43.034Z,8.98
2023-04-16T08:05:09.753Z,9.50
2023-04-16T08:07:36.207Z,7.65
2023-04-16T08:10:02.615Z,8.50
2023-04-16T08:12:29.786Z,7.50
2023-04-16T08:14:56.176Z,8.02
2023-04-16T08:17:22.551Z,7.82
2023-04-16T08:19:48.902Z,8.30
2023-04-16T08:22:15.258Z,7.53
2023-04-16T08:24:41.530Z,7.55
2023-04-16T08:27:17.908Z,7.40
2023-04-16T08:29:45.523Z,6.75
2023-04-16T08:32:11.910Z,7.30
2023-04-16T08:34:38.305Z,6.65
2023-04-16T08:37:04.612Z,6.22
2023-04-16T08:39:31.086Z,5.95
2023-04-16T08:41:58.555Z,6.22
2023-04-16T08:44:31.751Z,6.80
2023-04-16T08:46:59.883Z,5.82
2023-04-16T08:49:27.164Z,5.82
2023-04-16T08:51:54.362Z,6.50
2023-04-16T08:54:38.779Z,6.40
2023-04-16T08:57:06.173Z,5.88
2023-04-16T08:59:33.145Z,6.15
2023-04-16T09:02:00.580Z,5.65
2023-04-16T09:04:28.930Z,5.95
2023-04-16T09:06:55.810Z,5.68
2023-04-16T09:09:22.557Z,4.88
2023-04-16T09:11:51.133Z,5.63
2023-04-16T09:14:17.618Z,5.05
2023-04-16T09:16:45.498Z,5.20
2023-04-16T09:19:12.341Z,5.78
2023-04-16T09:21:40.850Z,5.45
2023-04-16T09:24:07.929Z,4.97
2023-04-16T09:26:34.355Z,5.28
2023-04-16T09:29:00.964Z,5.70
2023-04-16T09:31:27.584Z,5.13
2023-04-16T09:34:01.163Z,5.75
2023-04-16T09:36:27.886Z,5.53
2023-04-16T09:39:06.632Z,6.22
2023-04-16T09:41:35.805Z,6.85
2023-04-16T09:44:04.555Z,7.03
2023-04-16T09:46:31.840Z,6.32
2023-04-16T09:48:58.543Z,6.22
2023-04-16T09:51:26.931Z,5.95
2023-04-16T09:53:54.835Z,7.30
2023-04-16T09:56:23.688Z,7.00
2023-04-16T09:58:50.000Z,6.72
2023-04-16T10:01:18.009Z,6.80
2023-04-16T10:03:49.607Z,7.18
2023-04-16T10:06:16.778Z,8.55
2023-04-16T10:08:43.797Z,8.85
2023-04-16T10:11:10.749Z,8.52
2023-04-16T10:13:37.069Z,9.50
2023-04-16T10:16:03.448Z,9.57
2023-04-16T10:18:30.319Z,8.75
2023-04-16T10:20:57.394Z,8.63
2023-04-16T10:23:23.782Z,8.57
2023-04-16T10:25:50.300Z,7.82
2023-04-16T10:28:16.701Z,8.38
2023-04-16T10:30:52.638Z,8.70
2023-04-16T10:33:20.585Z,9.05
2023-04-16T10:35:55.020Z,8.13
2023-04-16T10:38:32.520Z,9.10
2023-04-16T10:41:00.458Z,9.57
2023-04-16T10:43:28.206Z,9.98
2023-04-16T10:45:55.371Z,10.40
2023-04-16T10:48:23.731Z,11.63
2023-04-16T10:50:57.296Z,10.10
2023-04-16T10:53:25.777Z,10.05
2023-04-16T10:56:07.702Z,9.95
2023-04-16T10:58:36.876Z,10.00
2023-04-16T11:01:13.673Z,9.15
2023-04-16T11:03:44.012Z,9.45
2023-04-16T11:06:14.599Z,9.82
2023-04-16T11:08:53.356Z,9.02
2023-04-16T11:11:21.551Z,8.55
2023-04-16T11:13:47.974Z,8.35
2023-04-16T11:16:14.702Z,8.93
2023-04-16T11:18:51.173Z,8.85
2023-04-16T11:21:18.184Z,9.85
2023-04-16T11:23:51.539Z,9.23
2023-04-16T11:26:23.301Z,10.52
2023-04-16T11:28:49.647Z,9.90
2023-04-16T11:31:16.235Z,10.07
2023-04-16T11:33:42.816Z,9.85
2023-04-16T11:36:09.283Z,9.88
2023-04-16T11:38:36.549Z,9.68
2023-04-16T11:41:03.169Z,9.98
2023-04-16T11:43:29.816Z,9.40
2023-04-16T11:46:00.142Z,10.00
2023-04-16T11:48:45.462Z,9.85
2023-04-16T11:51:11.853Z,10.10
2023-04-16T11:53:45.317Z,10.35
2023-04-16T11:56:11.975Z,10.55
2023-04-16T11:58:38.265Z,9.80
2023-04-16T12:01:10.171Z,10.35
2023-04-16T12:03:46.184Z,9.63
2023-04-16T12:06:12.717Z,9.30
2023-04-16T12:08:39.051Z,8.32
2023-04-16T12:11:05.458Z,8.88
2023-04-16T12:13:39.617Z,9.45
2023-04-16T12:16:16.735Z,8.60
2023-04-16T12:18:58.949Z,7.85
2023-04-16T12:21:25.448Z,8.02
2023-04-16T12:23:53.515Z,7.85
2023-04-16T12:26:19.860Z,8.18
2023-04-16T12:28:46.154Z,8.15
2023-04-16T12:31:12.481Z,8.02
2023-04-16T12:33:38.830Z,8.55
2023-04-16T12:36:20.684Z,8.43
2023-04-16T12:38:46.973Z,7.78
2023-04-16T12:41:13.387Z,7.88
2023-04-16T12:43:39.696Z,8.30
2023-04-16T12:46:06.721Z,8.93
2023-04-16T12:48:33.788Z,9.82
2023-04-16T12:51:00.333Z,8.35
2023-04-16T12:53:27.167Z,9.05
2023-04-16T12:55:53.505Z,10.32
2023-04-16T12:58:19.771Z,9.57
2023-04-16T13:00:46.153Z,10.18
2023-04-16T13:03:12.591Z,9.65
2023-04-16T13:05:39.045Z,10.30
2023-04-16T13:08:05.355Z,10.38
2023-04-16T13:10:31.701Z,9.95
2023-04-16T13:12:57.973Z,10.77
2023-04-16T13:15:24.250Z,12.75
2023-04-16T13:17:50.527Z,11.52
2023-04-16T13:20:17.009Z,10.93
2023-04-16T13:22:43.352Z,10.45
2023-04-16T13:25:09.851Z,10.75
2023-04-16T13:27:36.246Z,12.38
2023-04-16T13:30:02.583Z,10.85
2023-04-16T13:32:28.996Z,10.75
2023-04-16T13:34:55.735Z,10.80
2023-04-16T13:37:22.015Z,10.55
2023-04-16T13:39:48.294Z,9.77
2023-04-16T13:42:14.543Z,11.15
2023-04-16T13:44:41.090Z,10.93
2023-04-16T13:47:08.097Z,8.95
2023-04-16T13:49:35.991Z,9.20
2023-04-16T13:52:02.608Z,10.45
2023-04-16T13:54:28.951Z,8.82
2023-04-16T13:56:55.846Z,8.18
2023-04-16T13:59:22.120Z,8.15
2023-04-16T14:01:48.498Z,8.80
2023-04-16T14:04:15.339Z,8.82
2023-04-16T14:06:41.688Z,8.57
2023-04-16T14:09:09.571Z,9.30
2023-04-16T14:11:36.468Z,9.15
2023-04-16T14:14:03.859Z,8.15
2023-04-16T14:16:30.553Z,10.55
2023-04-16T14:18:56.892Z,8.10
2023-04-16T14:21:23.210Z,8.98
2023-04-16T14:23:49.563Z,9.38
2023-04-16T14:26:16.070Z,9.00
2023-04-16T14:28:42.495Z,8.10
2023-04-16T14:31:08.907Z,8.48
2023-04-16T14:33:35.313Z,8.18
2023-04-16T14:36:03.224Z,8.65
2023-04-16T14:38:30.652Z,8.63
2023-04-16T14:40:56.954Z,8.95
2023-04-16T14:43:23.311Z,8.98
2023-04-16T14:45:49.682Z,8.88
2023-04-16T14:48:16.053Z,8.35
2023-04-16T14:50:44.017Z,9.00
2023-04-16T14:53:13.326Z,8.65
2023-04-16T14:55:39.647Z,11.05
2023-04-16T14:58:06.144Z,9.70
2023-04-16T15:00:35.495Z,8.55
2023-04-16T15:03:01.903Z,9.52
2023-04-16T15:05:30.008Z,9.93
2023-04-16T15:07:56.610Z,9.18
2023-04-16T15:10:23.014Z,9.35
2023-04-16T15:12:49.288Z,8.88
2023-04-16T15:15:15.775Z,8.93
2023-04-16T15:17:42.840Z,9.02
2023-04-16T15:20:09.397Z,9.65
2023-04-16T15:22:35.843Z,9.20
2023-04-16T15:25:02.324Z,10.32
2023-04-16T15:27:28.923Z,10.20
2023-04-16T15:29:55.608Z,9.82
2023-04-16T15:32:22.033Z,10.25
2023-04-16T15:34:48.401Z,10.45
2023-04-16T15:37:15.480Z,9.95
2023-04-16T15:39:42.027Z,10.40
2023-04-16T15:42:08.485Z,10.15
2023-04-16T15:44:34.809Z,10.40
2023-04-16T15:47:01.250Z,10.15
2023-04-16T15:49:27.663Z,9.98
2023-04-16T15:51:54.205Z,10.00
2023-04-16T15:54:20.567Z,10.07
2023-04-16T15:56:47.214Z,10.55
2023-04-16T15:59:13.584Z,10.88
2023-04-16T16:01:40.180Z,10.25
2023-04-16T16:04:07.426Z,11.63
2023-04-16T16:06:34.124Z,10.68
2023-04-16T16:09:00.468Z,10.88
2023-04-16T16:11:27.419Z,10.70
2023-04-16T16:13:53.814Z,10.73
2023-04-16T16:16:21.668Z,12.10
2023-04-16T16:18:48.316Z,11.23
2023-04-16T16:21:14.648Z,11.05
2023-04-16T16:23:41.345Z,13.02
2023-04-16T16:26:09.332Z,10.55
2023-04-16T16:28:38.704Z,10.93
2023-04-16T16:31:05.860Z,11.10
2023-04-16T16:33:32.370Z,11.18
2023-04-16T16:35:58.838Z,11.05
2023-04-16T16:38:25.841Z,11.00
2023-04-16T16:40:52.170Z,11.70
2023-04-16T16:43:18.564Z,12.38
2023-04-16T16:45:45.048Z,11.57
2023-04-16T16:48:11.386Z,11.50
2023-04-16T16:50:37.723Z,11.10
2023-04-16T16:53:04.041Z,11.50
2023-04-16T16:55:31.116Z,11.40
2023-04-16T16:57:57.722Z,11.02
2023-04-16T17:00:24.192Z,11.55
2023-04-16T17:02:52.058Z,11.20
2023-04-16T17:05:18.681Z,11.43
2023-04-16T17:07:45.129Z,11.55
2023-04-16T17:10:13.197Z,12.10
2023-04-16T17:12:42.106Z,11.13
2023-04-16T17:15:08.711Z,11.60
2023-04-16T17:17:35.121Z,12.02
2023-04-16T17:20:02.757Z,12.23
2023-04-16T17:22:29.168Z,11.20
2023-04-16T17:24:55.529Z,11.15
2023-04-16T17:27:21.816Z,11.85
2023-04-16T17:29:48.098Z,10.25
2023-04-16T17:32:14.391Z,10.40
2023-04-16T17:34:40.934Z,11.35
2023-04-16T17:37:07.318Z,11.75
2023-04-16T17:39:33.719Z,12.65
2023-04-16T17:42:03.028Z,11.48
2023-04-16T17:44:29.655Z,11.38
2023-04-16T17:46:56.084Z,10.75
2023-04-16T17:49:22.394Z,10.80
2023-04-16T17:51:49.086Z,11.68
2023-04-16T17:54:15.497Z,12.05
2023-04-16T17:56:41.954Z,12.27
2023-04-16T17:59:08.294Z,10.75
2023-04-16T18:01:34.703Z,12.23
2023-04-16T18:04:01.425Z,13.18
2023-04-16T18:06:28.231Z,12.27
2023-04-16T18:08:54.517Z,11.98
2023-04-16T18:11:21.144Z,13.68
2023-04-16T18:13:47.524Z,11.85
2023-04-16T18:16:16.949Z,13.23
2023-04-16T18:18:43.673Z,13.70
2023-04-16T18:21:10.155Z,13.93
2023-04-16T18:23:36.550Z,13.55
2023-04-16T18:26:03.012Z,14.35
2023-04-16T18:28:29.734Z,15.82
2023-04-16T18:30:59.000Z,14.90
2023-04-16T18:33:49.988Z,14.45
2023-04-16T18:36:14.512Z,15.27
2023-04-16T18:38:53.003Z,14.10
2023-04-16T18:41:23.821Z,14.30
2023-04-16T18:43:50.374Z,15.57
2023-04-16T18:46:16.819Z,13.63
2023-04-16T18:48:44.474Z,15.57
2023-04-16T18:51:11.225Z,15.77
2023-04-16T18:53:37.993Z,14.55
2023-04-16T18:56:04.562Z,15.30
2023-04-16T18:58:31.150Z,15.73
2023-04-16T19:01:01.044Z,14.50
2023-04-16T19:03:29.905Z,14.75
2023-04-16T19:05:56.383Z,13.43
2023-04-16T19:08:22.952Z,14.77
2023-04-16T19:10:50.060Z,15.45
2023-04-16T19:13:16.621Z,14.88
2023-04-16T19:15:42.956Z,15.82
2023-04-16T19:18:09.359Z,14.73
2023-04-16T19:20:36.288Z,15.40
2023-04-16T19:23:05.363Z,15.68
2023-04-16T19:25:32.135Z,15.07
2023-04-16T19:27:58.467Z,14.57
2023-04-16T19:30:24.910Z,14.32
2023-04-16T19:32:52.227Z,14.45
2023-04-16T19:35:20.276Z,14.35
2023-04-16T19:37:46.583Z,15.45
2023-04-16T19:40:13.003Z,16.38
2023-04-16T19:42:40.132Z,15.20
2023-04-16T19:45:06.974Z,15.65
2023-04-16T19:47:33.312Z,15.50
2023-04-16T19:49:59.985Z,15.98
2023-04-16T19:52:26.368Z,16.55
2023-04-16T19:54:52.799Z,15.23
2023-04-16T19:57:19.106Z,16.58
2023-04-16T19:59:45.496Z,16.15
2023-04-16T20:02:11.889Z,16.20
2023-04-16T20:04:38.271Z,16.67
2023-04-16T20:07:04.565Z,17.55
2023-04-16T20:09:30.998Z,17.77
2023-04-16T20:11:57.936Z,15.57
2023-04-16T20:14:24.740Z,17.60
2023-04-16T20:16:51.909Z,17.92
2023-04-16T20:19:19.483Z,16.92
2023-04-16T20:21:46.193Z,17.77
2023-04-16T20:24:12.545Z,17.17
2023-04-16T20:26:38.963Z,19.45
2023-04-16T20:29:05.288Z,18.83
2023-04-16T20:31:31.717Z,18.65
2023-04-16T20:33:58.173Z,18.00
2023-04-16T20:36:24.448Z,18.33
2023-04-16T20:38:53.826Z,18.58
2023-04-16T20:41:21.040Z,17.23
2023-04-16T20:43:50.072Z,17.45
2023-04-16T20:46:17.094Z,18.30
2023-04-16T20:48:43.543Z,18.83
2023-04-16T20:51:10.132Z,18.55
2023-04-16T20:53:39.604Z,17.13
2023-04-16T20:56:06.827Z,19.30
2023-04-16T20:58:33.133Z,18.48
2023-04-16T21:00:59.602Z,18.73
2023-04-16T21:03:26.549Z,17.98
2023-04-16T21:05:53.802Z,18.88
2023-04-16T21:08:20.973Z,17.92
2023-04-16T21:10:47.302Z,17.55
2023-04-16T21:13:13.863Z,17.70
2023-04-16T21:15:40.830Z,17.67
2023-04-16T21:18:07.527Z,19.08
2023-04-16T21:20:34.055Z,17.90
2023-04-16T21:23:00.920Z,19.27
2023-04-16T21:25:27.421Z,18.75
2023-04-16T21:27:53.904Z,17.63
2023-04-16T21:30:20.289Z,18.35
2023-04-16T21:32:46.551Z,17.38
2023-04-16T21:35:13.254Z,16.80
2023-04-16T21:37:39.811Z,17.42
2023-04-16T21:40:06.364Z,16.85
2023-04-16T21:42:40.022Z,15.52
2023-04-16T21:45:10.227Z,15.88
2023-04-16T21:47:37.011Z,15.40
2023-04-16T21:50:03.719Z,17.13
2023-04-16T21:52:30.492Z,16.02
2023-04-16T21:54:56.802Z,18.20
2023-04-16T21:57:23.177Z,18.27
2023-04-16T21:59:49.475Z,18.00
2023-04-16T22:02:15.893Z,17.55
2023-04-16T22:04:43.493Z,18.02
2023-04-16T22:07:09.921Z,18.77
2023-04-16T22:09:36.337Z,18.70
2023-04-16T22:12:02.915Z,18.60
2023-04-16T22:14:30.356Z,20.13
2023-04-16T22:16:56.743Z,18.80
2023-04-16T22:19:23.199Z,21.10
2023-04-16T22:21:49.626Z,20.13
2023-04-16T22:24:15.968Z,20.63
2023-04-16T22:26:42.273Z,20.45
2023-04-16T22:29:08.646Z,21.48
2023-04-16T22:31:35.063Z,20.85
2023-04-16T22:34:03.344Z,19.20
2023-04-16T22:36:31.140Z,19.15
2023-04-16T22:38:57.387Z,19.40
2023-04-16T22:41:23.813Z,20.80
2023-04-16T22:43:52.464Z,21.88
2023-04-16T22:46:22.333Z,22.65
2023-04-16T22:48:48.758Z,22.27
2023-04-16T22:51:15.095Z,21.27
2023-04-16T22:53:41.359Z,22.15
2023-04-16T22:56:07.802Z,21.38
2023-04-16T22:58:34.128Z,21.42
2023-04-16T23:01:01.570Z,21.65
2023-04-16T23:03:28.066Z,22.13
2023-04-16T23:05:54.375Z,22.90
2023-04-16T23:08:20.766Z,22.52
2023-04-16T23:10:46.995Z,20.75
2023-04-16T23:13:13.387Z,21.85
2023-04-16T23:15:39.779Z,20.70
2023-04-16T23:18:06.221Z,19.95
2023-04-16T23:20:32.615Z,19.02
2023-04-16T23:22:59.465Z,19.77
2023-04-16T23:25:25.803Z,19.48
2023-04-16T23:27:52.148Z,20.33
2023-04-16T23:30:18.513Z,19.58
2023-04-16T23:32:44.848Z,20.00
2023-04-16T23:35:11.250Z,19.55
2023-04-16T23:37:37.597Z,19.60
2023-04-16T23:40:04.816Z,19.33
2023-04-16T23:42:31.131Z,19.80
2023-04-16T23:44:57.424Z,19.23
2023-04-16T23:47:23.813Z,20.67
2023-04-16T23:49:50.123Z,20.58
2023-04-16T23:52:16.372Z,20.15
2023-04-16T23:54:42.664Z,22.50
2023-04-16T23:57:09.127Z,21.05
2023-04-16T23:59:35.400Z,21.05
